createdAt,value
2019-03-27T00:01:22.294Z,8.75
2019-03-27T00:03:51.745Z,8.72
2019-03-27T00:06:21.226Z,8.69
2019-03-27T00:08:50.692Z,8.67
2019-03-27T00:11:20.169Z,8.62
2019-03-27T00:13:49.697Z,8.59
2019-03-27T00:16:19.184Z,8.54
2019-03-27T00:18:48.634Z,8.51
2019-03-27T00:21:18.127Z,8.48
2019-03-27T00:23:47.585Z,8.44
2019-03-27T00:26:17.110Z,8.44
2019-03-27T00:28:46.582Z,8.41
2019-03-27T00:31:16.051Z,8.38
2019-03-27T00:33:45.527Z,8.36
2019-03-27T00:36:15.018Z,8.35
2019-03-27T00:38:44.473Z,8.32
2019-03-27T00:41:13.962Z,8.31
2019-03-27T00:43:43.495Z,8.27
2019-03-27T00:46:12.975Z,8.27
2019-03-27T00:48:42.498Z,8.26
2019-03-27T00:51:12.089Z,8.25
2019-03-27T00:53:41.536Z,8.25
2019-03-27T00:56:11.004Z,8.23
2019-03-27T00:58:40.481Z,8.23
2019-03-27T01:01:10.823Z,8.21
2019-03-27T01:03:40.326Z,8.20
2019-03-27T01:06:10.090Z,8.19
2019-03-27T01:08:39.599Z,8.18
2019-03-27T01:11:09.267Z,8.16
2019-03-27T01:13:38.799Z,8.14
2019-03-27T01:16:08.441Z,8.13
2019-03-27T01:18:37.965Z,8.11
2019-03-27T01:21:26.812Z,8.10
2019-03-27T01:23:56.276Z,8.09
2019-03-27T01:26:25.761Z,8.08
2019-03-27T01:28:55.218Z,8.07
2019-03-27T01:31:24.698Z,8.04
2019-03-27T01:33:54.233Z,8.01
2019-03-27T01:36:23.718Z,7.99
2019-03-27T01:38:53.248Z,7.96
2019-03-27T01:41:22.882Z,7.96
2019-03-27T01:43:52.372Z,7.95
2019-03-27T01:46:21.893Z,7.95
2019-03-27T01:48:51.449Z,7.95
2019-03-27T01:51:20.954Z,7.92
2019-03-27T01:53:50.415Z,7.89
2019-03-27T01:56:19.890Z,7.88
2019-03-27T01:58:49.398Z,7.87
2019-03-27T02:01:18.863Z,7.87
2019-03-27T02:03:48.396Z,7.86
2019-03-27T02:06:18.001Z,7.86
2019-03-27T02:08:47.501Z,7.86
2019-03-27T02:11:16.993Z,7.83
2019-03-27T02:13:46.522Z,7.83
2019-03-27T02:16:15.979Z,7.81
2019-03-27T02:18:45.493Z,7.79
2019-03-27T02:21:15.905Z,7.78
2019-03-27T02:23:45.404Z,7.76
2019-03-27T02:26:14.942Z,7.74
2019-03-27T02:28:44.528Z,7.74
2019-03-27T02:31:13.977Z,7.72
2019-03-27T02:33:43.510Z,7.71
2019-03-27T02:36:13.000Z,7.68
2019-03-27T02:38:42.501Z,7.66
2019-03-27T02:41:11.957Z,7.63
2019-03-27T02:43:41.518Z,7.59
2019-03-27T02:46:23.925Z,7.54
2019-03-27T02:48:42.232Z,7.49
2019-03-27T02:51:11.793Z,7.42
2019-03-27T02:53:41.268Z,7.35
2019-03-27T02:56:10.750Z,7.29
2019-03-27T02:58:40.199Z,7.22
2019-03-27T03:01:09.748Z,7.14
2019-03-27T03:03:39.309Z,7.06
2019-03-27T03:06:08.757Z,7.00
2019-03-27T03:08:38.382Z,6.92
2019-03-27T03:11:08.019Z,6.84
2019-03-27T03:13:37.591Z,6.76
2019-03-27T03:16:07.108Z,6.69
2019-03-27T03:18:36.587Z,6.61
2019-03-27T03:21:06.142Z,6.54
2019-03-27T03:23:35.627Z,6.45
2019-03-27T03:26:05.067Z,6.38
2019-03-27T03:28:34.541Z,6.32
2019-03-27T03:31:04.022Z,6.25
2019-03-27T03:33:33.741Z,6.19
2019-03-27T03:36:03.386Z,6.11
2019-03-27T03:38:32.866Z,6.04
2019-03-27T03:41:02.335Z,5.97
2019-03-27T03:43:31.811Z,5.91
2019-03-27T03:46:01.352Z,5.84
2019-03-27T03:48:30.840Z,5.77
2019-03-27T03:51:02.448Z,5.72
2019-03-27T03:53:33.059Z,5.66
2019-03-27T03:56:02.778Z,5.63
2019-03-27T03:58:36.149Z,5.60
2019-03-27T04:01:07.056Z,5.58
2019-03-27T04:03:36.982Z,5.56
2019-03-27T04:06:06.508Z,5.55
2019-03-27T04:08:36.026Z,5.56
2019-03-27T04:11:05.568Z,5.58
2019-03-27T04:13:35.096Z,5.61
2019-03-27T04:16:04.586Z,5.64
2019-03-27T04:18:34.184Z,5.67
2019-03-27T04:21:03.680Z,5.71
2019-03-27T04:23:33.170Z,5.77
2019-03-27T04:26:09.801Z,5.81
2019-03-27T04:28:33.891Z,5.87
2019-03-27T04:31:15.885Z,5.91
2019-03-27T04:33:45.325Z,5.94
2019-03-27T04:36:14.809Z,5.98
2019-03-27T04:38:44.400Z,6.00
2019-03-27T04:41:13.948Z,6.03
2019-03-27T04:43:43.434Z,6.06
2019-03-27T04:46:12.906Z,6.07
2019-03-27T04:48:42.410Z,6.09
2019-03-27T04:51:11.917Z,6.10
2019-03-27T04:53:41.407Z,6.12
2019-03-27T04:56:12.812Z,6.12
2019-03-27T04:58:42.237Z,6.13
2019-03-27T05:01:11.790Z,6.12
2019-03-27T05:03:41.262Z,6.12
2019-03-27T05:06:10.749Z,6.12
2019-03-27T05:08:40.228Z,6.12
2019-03-27T05:11:09.709Z,6.11
2019-03-27T05:13:39.197Z,6.11
2019-03-27T05:16:08.907Z,6.10
2019-03-27T05:18:38.404Z,6.08
2019-03-27T05:21:07.873Z,6.07
2019-03-27T05:23:37.377Z,6.07
2019-03-27T05:26:07.010Z,6.08
2019-03-27T05:28:38.994Z,6.08
2019-03-27T05:31:08.496Z,6.08
2019-03-27T05:33:37.963Z,6.08
2019-03-27T05:36:07.447Z,6.08
2019-03-27T05:38:37.079Z,6.06
2019-03-27T05:41:06.583Z,6.05
2019-03-27T05:43:36.028Z,6.02
2019-03-27T05:46:05.659Z,5.98
2019-03-27T05:48:35.115Z,5.94
2019-03-27T05:51:04.687Z,5.91
2019-03-27T05:53:34.140Z,5.87
2019-03-27T05:56:03.675Z,5.84
2019-03-27T05:58:33.142Z,5.81
2019-03-27T06:01:02.655Z,5.78
2019-03-27T06:03:32.232Z,5.76
2019-03-27T06:06:01.718Z,5.73
2019-03-27T06:08:31.229Z,5.70
2019-03-27T06:11:00.763Z,5.67
2019-03-27T06:13:30.258Z,5.65
2019-03-27T06:15:59.824Z,5.64
2019-03-27T06:18:29.430Z,5.62
2019-03-27T06:20:58.886Z,5.61
2019-03-27T06:23:28.427Z,5.62
2019-03-27T06:25:57.917Z,5.63
2019-03-27T06:28:27.403Z,5.65
2019-03-27T06:30:56.911Z,5.70
2019-03-27T06:33:26.383Z,5.75
2019-03-27T06:35:55.921Z,5.83
2019-03-27T06:38:25.444Z,5.90
2019-03-27T06:40:55.004Z,6.00
2019-03-27T06:43:24.626Z,6.07
2019-03-27T06:45:54.103Z,6.14
2019-03-27T06:48:26.401Z,6.24
2019-03-27T06:50:54.808Z,6.32
2019-03-27T06:53:24.423Z,6.43
2019-03-27T06:55:53.906Z,6.53
2019-03-27T06:58:23.439Z,6.65
2019-03-27T07:00:53.000Z,6.75
2019-03-27T07:03:22.492Z,6.87
2019-03-27T07:05:51.958Z,6.98
2019-03-27T07:08:21.454Z,7.10
2019-03-27T07:10:50.985Z,7.21
2019-03-27T07:13:20.517Z,7.32
2019-03-27T07:15:50.130Z,7.45
2019-03-27T07:18:19.740Z,7.56
2019-03-27T07:20:49.237Z,7.67
2019-03-27T07:23:18.704Z,7.79
2019-03-27T07:25:48.253Z,7.89
2019-03-27T07:28:17.736Z,8.01
2019-03-27T07:30:47.335Z,8.13
2019-03-27T07:33:16.960Z,8.22
2019-03-27T07:35:46.437Z,8.32
2019-03-27T07:38:15.918Z,8.42
2019-03-27T07:40:45.430Z,8.50
2019-03-27T07:43:14.954Z,8.62
2019-03-27T07:45:46.144Z,8.71
2019-03-27T07:48:15.704Z,8.83
2019-03-27T07:50:45.318Z,8.95
2019-03-27T07:53:14.908Z,9.07
2019-03-27T07:55:44.363Z,9.19
2019-03-27T07:58:13.863Z,9.31
2019-03-27T08:00:43.368Z,9.45
2019-03-27T08:03:12.846Z,9.58
2019-03-27T08:05:42.313Z,9.71
2019-03-27T08:08:11.812Z,9.83
2019-03-27T08:10:41.370Z,9.95
2019-03-27T08:13:10.959Z,10.08
2019-03-27T08:15:40.976Z,10.21
2019-03-27T08:18:10.521Z,10.35
2019-03-27T08:20:40.098Z,10.48
2019-03-27T08:23:09.564Z,10.64
2019-03-27T08:25:39.072Z,10.81
2019-03-27T08:28:08.553Z,10.99
2019-03-27T08:30:38.127Z,11.17
2019-03-27T08:33:07.599Z,11.34
2019-03-27T08:35:37.161Z,11.52
2019-03-27T08:38:06.630Z,11.69
2019-03-27T08:40:36.300Z,11.85
2019-03-27T08:43:05.839Z,12.00
2019-03-27T08:45:35.329Z,12.16
2019-03-27T08:48:05.536Z,12.31
2019-03-27T08:50:35.159Z,12.44
2019-03-27T08:53:04.660Z,12.55
2019-03-27T08:55:34.177Z,12.64
2019-03-27T08:58:03.640Z,12.71
2019-03-27T09:00:52.126Z,12.74
2019-03-27T09:03:21.662Z,12.74
2019-03-27T09:05:51.235Z,12.72
2019-03-27T09:08:20.783Z,12.64
2019-03-27T09:10:50.367Z,12.56
2019-03-27T09:13:20.066Z,12.49
2019-03-27T09:15:49.650Z,12.43
2019-03-27T09:18:19.130Z,12.37
2019-03-27T09:20:48.605Z,12.29
2019-03-27T09:23:18.167Z,12.20
2019-03-27T09:25:47.714Z,12.15
2019-03-27T09:28:17.230Z,12.10
2019-03-27T09:30:46.800Z,12.07
2019-03-27T09:33:16.357Z,12.06
2019-03-27T09:35:45.873Z,12.06
2019-03-27T09:38:15.484Z,12.09
2019-03-27T09:40:45.057Z,12.11
2019-03-27T09:43:14.638Z,12.15
2019-03-27T09:45:44.104Z,12.16
2019-03-27T09:48:13.650Z,12.18
2019-03-27T09:50:43.295Z,12.21
2019-03-27T09:53:12.769Z,12.21
2019-03-27T09:55:42.271Z,12.17
2019-03-27T09:58:11.807Z,12.14
2019-03-27T10:00:55.624Z,12.10
2019-03-27T10:03:25.321Z,12.06
2019-03-27T10:05:54.990Z,12.03
2019-03-27T10:08:24.484Z,11.97
2019-03-27T10:10:54.093Z,11.96
2019-03-27T10:13:23.614Z,11.96
2019-03-27T10:15:53.179Z,11.97
2019-03-27T10:18:22.825Z,12.02
2019-03-27T10:20:52.301Z,12.06
2019-03-27T10:23:21.794Z,12.13
2019-03-27T10:25:51.410Z,12.19
2019-03-27T10:28:20.929Z,12.32
2019-03-27T10:30:50.735Z,12.47
2019-03-27T10:33:20.333Z,12.69
2019-03-27T10:35:49.801Z,12.93
2019-03-27T10:38:19.288Z,13.16
2019-03-27T10:40:48.847Z,13.39
2019-03-27T10:43:18.384Z,13.63
2019-03-27T10:45:47.981Z,13.81
2019-03-27T10:48:17.455Z,13.94
2019-03-27T10:50:46.943Z,14.05
2019-03-27T10:53:16.739Z,14.16
2019-03-27T10:55:46.374Z,14.24
2019-03-27T10:58:15.871Z,14.29
2019-03-27T11:00:45.422Z,14.32
2019-03-27T11:03:14.920Z,14.36
2019-03-27T11:05:44.520Z,14.39
2019-03-27T11:08:13.990Z,14.40
2019-03-27T11:10:43.576Z,14.41
2019-03-27T11:13:13.118Z,14.43
2019-03-27T11:15:42.606Z,14.44
2019-03-27T11:18:12.156Z,14.45
2019-03-27T11:20:41.639Z,14.46
2019-03-27T11:23:11.168Z,14.47
2019-03-27T11:25:40.731Z,14.49
2019-03-27T11:28:10.309Z,14.55
2019-03-27T11:30:40.589Z,14.61
2019-03-27T11:33:10.486Z,14.68
2019-03-27T11:35:40.187Z,14.73
2019-03-27T11:38:09.761Z,14.78
2019-03-27T11:40:39.276Z,14.83
2019-03-27T11:43:08.874Z,14.87
2019-03-27T11:45:38.503Z,14.91
2019-03-27T11:48:08.432Z,14.94
2019-03-27T11:50:44.765Z,14.98
2019-03-27T11:53:09.079Z,15.02
2019-03-27T11:55:38.569Z,15.06
2019-03-27T11:58:08.055Z,15.12
2019-03-27T12:00:37.720Z,15.17
2019-03-27T12:03:07.271Z,15.25
2019-03-27T12:05:36.842Z,15.30
2019-03-27T12:08:06.376Z,15.39
2019-03-27T12:10:35.881Z,15.50
2019-03-27T12:13:05.652Z,15.61
2019-03-27T12:15:40.340Z,15.71
2019-03-27T12:18:11.193Z,15.77
2019-03-27T12:20:40.721Z,15.78
2019-03-27T12:23:10.350Z,15.75
2019-03-27T12:25:39.986Z,15.68
2019-03-27T12:28:09.576Z,15.62
2019-03-27T12:30:39.229Z,15.56
2019-03-27T12:33:08.727Z,15.50
2019-03-27T12:35:38.339Z,15.45
2019-03-27T12:38:07.992Z,15.39
2019-03-27T12:40:37.527Z,15.34
2019-03-27T12:43:07.264Z,15.27
2019-03-27T12:45:36.875Z,15.22
2019-03-27T12:48:06.586Z,15.14
2019-03-27T12:50:36.328Z,15.02
2019-03-27T12:53:06.164Z,14.90
2019-03-27T12:55:35.635Z,14.81
2019-03-27T12:58:05.630Z,14.76
2019-03-27T13:00:35.833Z,14.75
2019-03-27T13:03:05.836Z,14.78
2019-03-27T13:05:35.376Z,14.84
2019-03-27T13:08:05.096Z,14.93
2019-03-27T13:10:34.651Z,15.01
2019-03-27T13:13:04.126Z,15.12
2019-03-27T13:15:33.611Z,15.23
2019-03-27T13:18:05.533Z,15.33
2019-03-27T13:20:35.201Z,15.44
2019-03-27T13:23:04.833Z,15.53
2019-03-27T13:25:34.405Z,15.60
2019-03-27T13:28:03.984Z,15.62
2019-03-27T13:30:33.456Z,15.64
2019-03-27T13:33:02.942Z,15.60
2019-03-27T13:35:32.440Z,15.54
2019-03-27T13:38:02.016Z,15.47
2019-03-27T13:40:31.482Z,15.44
2019-03-27T13:43:01.041Z,15.40
2019-03-27T13:45:30.610Z,15.35
2019-03-27T13:48:00.114Z,15.36
2019-03-27T13:50:29.652Z,15.36
2019-03-27T13:52:59.181Z,15.37
2019-03-27T13:55:28.688Z,15.39
2019-03-27T13:57:58.230Z,15.40
2019-03-27T14:00:27.802Z,15.40
2019-03-27T14:02:57.303Z,15.41
2019-03-27T14:05:26.828Z,15.43
2019-03-27T14:07:56.346Z,15.41
2019-03-27T14:10:25.936Z,15.42
2019-03-27T14:12:55.428Z,15.43
2019-03-27T14:15:25.082Z,15.41
2019-03-27T14:17:54.561Z,15.42
2019-03-27T14:20:24.105Z,15.40
2019-03-27T14:22:53.617Z,15.36
2019-03-27T14:25:23.418Z,15.33
2019-03-27T14:27:52.987Z,15.29
2019-03-27T14:30:51.643Z,15.27
2019-03-27T14:33:21.562Z,15.26
2019-03-27T14:35:51.109Z,15.29
2019-03-27T14:38:20.744Z,15.33
2019-03-27T14:40:50.308Z,15.39
2019-03-27T14:43:19.898Z,15.46
2019-03-27T14:45:49.702Z,15.54
2019-03-27T14:48:19.223Z,15.60
2019-03-27T14:50:48.779Z,15.64
2019-03-27T14:53:18.301Z,15.68
2019-03-27T14:55:47.831Z,15.69
2019-03-27T14:58:17.421Z,15.68
2019-03-27T15:00:47.189Z,15.65
2019-03-27T15:03:16.847Z,15.61
2019-03-27T15:05:46.399Z,15.59
2019-03-27T15:08:15.936Z,15.57
2019-03-27T15:10:45.517Z,15.54
2019-03-27T15:13:15.523Z,15.49
2019-03-27T15:15:48.097Z,15.41
2019-03-27T15:18:17.568Z,15.33
2019-03-27T15:20:47.027Z,15.23
2019-03-27T15:23:16.596Z,15.15
2019-03-27T15:25:46.059Z,15.11
2019-03-27T15:28:15.552Z,15.05
2019-03-27T15:30:45.040Z,15.02
2019-03-27T15:33:14.531Z,14.99
2019-03-27T15:35:44.695Z,14.97
2019-03-27T15:38:14.432Z,14.96
2019-03-27T15:40:46.518Z,14.94
2019-03-27T15:43:16.140Z,14.94
2019-03-27T15:45:45.686Z,14.99
2019-03-27T15:48:15.249Z,15.05
2019-03-27T15:50:55.571Z,15.10
2019-03-27T15:53:15.941Z,15.14
2019-03-27T15:55:45.565Z,15.13
2019-03-27T15:58:15.067Z,15.12
2019-03-27T16:00:44.670Z,15.12
2019-03-27T16:03:14.255Z,15.11
2019-03-27T16:05:45.050Z,15.09
2019-03-27T16:08:14.591Z,15.09
2019-03-27T16:10:44.084Z,15.07
2019-03-27T16:13:13.646Z,15.08
2019-03-27T16:15:43.253Z,15.07
2019-03-27T16:18:15.035Z,15.05
2019-03-27T16:20:44.019Z,15.05
2019-03-27T16:23:13.551Z,15.03
2019-03-27T16:25:43.073Z,15.03
2019-03-27T16:28:12.757Z,14.99
2019-03-27T16:30:42.403Z,14.96
2019-03-27T16:33:11.853Z,14.96
2019-03-27T16:35:41.373Z,14.95
2019-03-27T16:38:10.893Z,14.97
2019-03-27T16:40:48.009Z,14.98
2019-03-27T16:43:17.852Z,14.98
2019-03-27T16:45:47.572Z,14.96
2019-03-27T16:48:17.119Z,14.94
2019-03-27T16:50:46.936Z,14.92
2019-03-27T16:53:16.440Z,14.91
2019-03-27T16:55:46.048Z,14.90
2019-03-27T16:58:15.625Z,14.89
2019-03-27T17:00:45.149Z,14.89
2019-03-27T17:03:14.671Z,14.89
2019-03-27T17:05:53.954Z,14.89
2019-03-27T17:08:15.606Z,14.89
2019-03-27T17:10:45.159Z,14.88
2019-03-27T17:13:14.658Z,14.88
2019-03-27T17:15:44.184Z,14.87
2019-03-27T17:18:13.718Z,14.86
2019-03-27T17:20:43.278Z,14.82
2019-03-27T17:23:18.412Z,14.76
2019-03-27T17:25:44.035Z,14.70
2019-03-27T17:28:13.488Z,14.62
2019-03-27T17:30:43.073Z,14.56
2019-03-27T17:33:12.548Z,14.48
2019-03-27T17:35:42.011Z,14.38
2019-03-27T17:38:11.579Z,14.29
2019-03-27T17:40:41.205Z,14.22
2019-03-27T17:43:10.792Z,14.16
2019-03-27T17:45:40.335Z,14.07
2019-03-27T17:48:10.008Z,14.00
2019-03-27T17:50:39.495Z,13.94
2019-03-27T17:53:09.072Z,13.89
2019-03-27T17:55:38.587Z,13.84
2019-03-27T17:58:08.109Z,13.78
2019-03-27T18:00:47.370Z,13.73
2019-03-27T18:03:16.896Z,13.68
2019-03-27T18:05:47.360Z,13.62
2019-03-27T18:08:16.859Z,13.56
2019-03-27T18:10:46.410Z,13.49
2019-03-27T18:13:16.029Z,13.43
2019-03-27T18:15:45.542Z,13.37
2019-03-27T18:18:15.060Z,13.32
2019-03-27T18:20:44.657Z,13.27
2019-03-27T18:23:14.223Z,13.19
2019-03-27T18:25:44.005Z,13.15
2019-03-27T18:28:13.482Z,13.09
2019-03-27T18:30:42.946Z,13.05
2019-03-27T18:33:12.613Z,12.99
2019-03-27T18:35:42.290Z,12.94
2019-03-27T18:38:11.974Z,12.90
2019-03-27T18:40:41.642Z,12.85
2019-03-27T18:43:11.301Z,12.80
2019-03-27T18:45:41.026Z,12.75
2019-03-27T18:48:10.588Z,12.71
2019-03-27T18:50:40.146Z,12.66
2019-03-27T18:53:09.731Z,12.61
2019-03-27T18:55:39.348Z,12.54
2019-03-27T18:58:08.813Z,12.49
2019-03-27T19:00:38.379Z,12.44
2019-03-27T19:03:07.944Z,12.39
2019-03-27T19:05:37.414Z,12.32
2019-03-27T19:08:07.013Z,12.24
2019-03-27T19:10:36.541Z,12.18
2019-03-27T19:13:06.215Z,12.11
2019-03-27T19:15:35.801Z,12.05
2019-03-27T19:18:05.608Z,11.98
2019-03-27T19:20:35.071Z,11.91
2019-03-27T19:23:04.687Z,11.85
2019-03-27T19:25:34.279Z,11.78
2019-03-27T19:28:03.841Z,11.71
2019-03-27T19:30:33.490Z,11.65
2019-03-27T19:33:03.120Z,11.58
2019-03-27T19:35:32.697Z,11.51
2019-03-27T19:38:02.324Z,11.45
2019-03-27T19:40:31.879Z,11.39
2019-03-27T19:43:01.422Z,11.32
2019-03-27T19:45:31.139Z,11.26
2019-03-27T19:48:00.707Z,11.20
2019-03-27T19:50:30.359Z,11.13
2019-03-27T19:52:59.831Z,11.07
2019-03-27T19:55:29.434Z,11.01
2019-03-27T19:57:58.918Z,10.93
2019-03-27T20:00:28.817Z,10.89
2019-03-27T20:02:58.398Z,10.84
2019-03-27T20:05:27.937Z,10.78
2019-03-27T20:07:57.641Z,10.72
2019-03-27T20:10:27.231Z,10.67
2019-03-27T20:12:56.826Z,10.62
2019-03-27T20:15:26.416Z,10.57
2019-03-27T20:17:56.087Z,10.52
2019-03-27T20:20:25.569Z,10.47
2019-03-27T20:22:55.159Z,10.42
2019-03-27T20:25:24.639Z,10.37
2019-03-27T20:27:54.227Z,10.31
2019-03-27T20:30:26.613Z,10.24
2019-03-27T20:32:55.346Z,10.18
2019-03-27T20:35:24.796Z,10.14
2019-03-27T20:37:54.302Z,10.08
2019-03-27T20:40:23.919Z,10.02
2019-03-27T20:42:53.519Z,9.97
2019-03-27T20:45:23.067Z,9.91
2019-03-27T20:47:52.551Z,9.85
2019-03-27T20:50:22.546Z,9.79
2019-03-27T20:52:52.013Z,9.74
2019-03-27T20:55:30.244Z,9.67
2019-03-27T20:57:52.865Z,9.62
2019-03-27T21:00:22.692Z,9.57
2019-03-27T21:02:52.202Z,9.52
2019-03-27T21:05:21.690Z,9.47
2019-03-27T21:07:51.315Z,9.44
2019-03-27T21:10:21.259Z,9.39
2019-03-27T21:12:50.849Z,9.36
2019-03-27T21:15:20.311Z,9.32
2019-03-27T21:17:49.871Z,9.29
2019-03-27T21:20:19.383Z,9.23
2019-03-27T21:22:48.868Z,9.19
2019-03-27T21:25:18.330Z,9.15
2019-03-27T21:27:47.907Z,9.13
2019-03-27T21:30:18.309Z,9.10
2019-03-27T21:32:47.808Z,9.07
2019-03-27T21:35:17.321Z,9.03
2019-03-27T21:37:46.770Z,9.01
2019-03-27T21:40:16.993Z,8.96
2019-03-27T21:42:46.491Z,8.91
2019-03-27T21:45:16.387Z,8.89
2019-03-27T21:47:45.895Z,8.85
2019-03-27T21:50:15.507Z,8.85
2019-03-27T21:52:45.049Z,8.83
2019-03-27T21:55:22.584Z,8.81
2019-03-27T21:57:46.063Z,8.79
2019-03-27T22:00:20.409Z,8.77
2019-03-27T22:02:49.919Z,8.75
2019-03-27T22:05:19.383Z,8.74
2019-03-27T22:07:48.889Z,8.74
2019-03-27T22:10:18.328Z,8.74
2019-03-27T22:12:47.838Z,8.72
2019-03-27T22:15:17.366Z,8.71
2019-03-27T22:17:46.945Z,8.70
2019-03-27T22:20:16.491Z,8.68
2019-03-27T22:22:46.079Z,8.68
2019-03-27T22:25:15.619Z,8.67
2019-03-27T22:27:45.100Z,8.67
2019-03-27T22:30:14.689Z,8.67
2019-03-27T22:32:44.184Z,8.66
2019-03-27T22:35:13.809Z,8.64
2019-03-27T22:37:43.296Z,8.63
2019-03-27T22:40:13.052Z,8.61
2019-03-27T22:42:42.593Z,8.60
2019-03-27T22:45:12.465Z,8.59
2019-03-27T22:47:41.964Z,8.58
2019-03-27T22:50:11.600Z,8.58
2019-03-27T22:52:41.067Z,8.56
2019-03-27T22:55:10.655Z,8.54
2019-03-27T22:57:40.146Z,8.54
2019-03-27T23:00:14.038Z,8.53
2019-03-27T23:02:43.608Z,8.52
2019-03-27T23:05:13.206Z,8.52
2019-03-27T23:07:42.665Z,8.52
2019-03-27T23:10:12.420Z,8.52
2019-03-27T23:12:41.896Z,8.53
2019-03-27T23:15:12.063Z,8.53
2019-03-27T23:17:41.643Z,8.53
2019-03-27T23:20:11.405Z,8.52
2019-03-27T23:22:40.845Z,8.52
2019-03-27T23:25:10.942Z,8.50
2019-03-27T23:27:40.489Z,8.50
2019-03-27T23:30:12.302Z,8.50
2019-03-27T23:32:41.822Z,8.49
2019-03-27T23:35:11.740Z,8.51
2019-03-27T23:37:41.364Z,8.51
2019-03-27T23:40:11.084Z,8.52
2019-03-27T23:42:40.581Z,8.53
2019-03-27T23:45:10.483Z,8.53
2019-03-27T23:47:42.543Z,8.54
2019-03-27T23:50:11.799Z,8.55
2019-03-27T23:52:41.293Z,8.56
2019-03-27T23:55:10.934Z,8.58
2019-03-27T23:57:40.413Z,8.58
